Iwo Jima

Current Flights

Departures
Number Departure To Airline
Arrivals
Number Arrival From Airline
Info
Name: Iwo Jima
Identifier:  IWO/RJAW
Local Time:  20. May 19:06
City
Iwo Jima
  Japan

Flights per Day
0 flights
Distance: 1,309km (813mi)
Punctuality
50% (0 flights per day delayed)
Delay Average: 35 minutes
Current Weather
 24 C (Humidity: 94%)
  14kt (25km/h / 16mph) from 100°
  Broken clouds at 200 feet (60 meter)
  4km (2 mi.)
 Mist
 METAR RJAW 201800Z 10014KT 4000 BR BKN002 24/23 Q1004 RMK 6ST002 A2967

Current Delays

Departures
N/A
Arrivals
N/A

Destinations

Top Destinations
Airport Flights
per week
Seats
per week
  Guam (GUM) <1 77 0 11

Airlines & Planes

Top Airlines
Airline Flights
per Day
Seats
per Day
  United Airlines <1 11
Top Plane Types
Manufacturer Model Flights Seats
Boeing B737-800 0.1/day 11/day 11.066666666666666